createdAt,value
2022-11-27T00:01:46.453Z,71.47
2022-11-27T00:06:47.744Z,71.64
2022-11-27T00:11:49.101Z,71.97
2022-11-27T00:16:50.667Z,71.88
2022-11-27T00:21:52.012Z,71.97
2022-11-27T00:26:53.384Z,71.92
2022-11-27T00:31:56.246Z,72.00
2022-11-27T00:36:57.556Z,72.51
2022-11-27T00:41:59.127Z,72.03
2022-11-27T00:47:00.598Z,71.87
2022-11-27T00:52:02.415Z,72.34
2022-11-27T00:57:04.665Z,72.51
2022-11-27T01:02:06.268Z,72.34
2022-11-27T01:07:07.669Z,72.47
2022-11-27T01:12:09.224Z,72.88
2022-11-27T01:17:10.598Z,73.20
2022-11-27T01:22:11.935Z,73.77
2022-11-27T01:27:14.864Z,74.29
2022-11-27T01:32:16.438Z,74.52
2022-11-27T01:37:17.841Z,74.53
2022-11-27T01:42:19.338Z,74.83
2022-11-27T01:47:31.278Z,75.32
2022-11-27T01:52:37.649Z,75.17
2022-11-27T01:57:47.402Z,75.35
2022-11-27T02:02:49.237Z,76.11
2022-11-27T02:07:52.672Z,76.46
2022-11-27T02:13:03.895Z,76.67
2022-11-27T02:18:23.242Z,77.19
2022-11-27T02:23:43.467Z,77.62
2022-11-27T02:29:07.652Z,77.76
2022-11-27T02:34:35.802Z,78.19
2022-11-27T02:39:57.363Z,78.31
2022-11-27T02:45:03.905Z,78.72
2022-11-27T02:50:09.135Z,79.04
2022-11-27T02:55:15.039Z,79.54
2022-11-27T03:00:17.637Z,79.73
2022-11-27T03:05:21.635Z,80.28
2022-11-27T03:10:34.278Z,80.47
2022-11-27T03:15:49.298Z,80.64
2022-11-27T03:20:55.471Z,80.65
2022-11-27T03:25:56.790Z,81.11
2022-11-27T03:30:58.341Z,81.31
2022-11-27T03:35:59.872Z,81.14
2022-11-27T03:41:11.883Z,81.31
2022-11-27T03:46:30.093Z,80.84
2022-11-27T03:52:07.981Z,81.50
2022-11-27T03:57:20.294Z,81.33
2022-11-27T04:02:40.303Z,81.35
2022-11-27T04:07:42.236Z,82.02
2022-11-27T04:12:43.608Z,82.06
2022-11-27T04:17:45.073Z,82.61
2022-11-27T04:22:46.577Z,83.04
2022-11-27T04:27:47.904Z,83.14
2022-11-27T04:32:49.268Z,82.94
2022-11-27T04:37:50.661Z,83.50
2022-11-27T04:42:52.056Z,83.82
2022-11-27T04:47:53.448Z,83.55
2022-11-27T04:52:54.772Z,83.21
2022-11-27T04:57:56.038Z,83.32
2022-11-27T05:02:57.439Z,83.44
2022-11-27T05:07:58.944Z,83.28
2022-11-27T05:13:00.292Z,83.87
2022-11-27T05:18:01.573Z,83.83
2022-11-27T05:23:02.966Z,84.17
2022-11-27T05:28:06.169Z,84.50
2022-11-27T05:33:07.584Z,83.84
2022-11-27T05:38:09.361Z,83.67
2022-11-27T05:43:10.705Z,83.75
2022-11-27T05:48:12.057Z,83.43
2022-11-27T05:53:13.615Z,83.34
2022-11-27T05:58:14.975Z,82.84
2022-11-27T06:03:16.312Z,82.63
2022-11-27T06:08:17.916Z,81.96
2022-11-27T06:13:19.405Z,82.09
2022-11-27T06:18:20.847Z,82.48
2022-11-27T06:23:22.383Z,82.02
2022-11-27T06:28:23.726Z,82.19
2022-11-27T06:33:25.074Z,81.71
2022-11-27T06:38:26.390Z,81.97
2022-11-27T06:43:27.783Z,82.14
2022-11-27T06:48:30.206Z,82.07
2022-11-27T06:53:34.435Z,82.15
2022-11-27T06:58:38.679Z,81.41
2022-11-27T07:03:40.630Z,81.33
2022-11-27T07:08:42.457Z,81.32
2022-11-27T07:13:45.001Z,81.03
2022-11-27T07:18:49.320Z,80.87
2022-11-27T07:23:51.138Z,81.50
2022-11-27T07:28:53.333Z,81.42
2022-11-27T07:33:55.002Z,81.30
2022-11-27T07:38:58.012Z,81.19
2022-11-27T07:43:59.465Z,81.04
2022-11-27T07:49:01.267Z,80.91
2022-11-27T07:54:02.814Z,80.61
2022-11-27T07:59:04.294Z,80.43
2022-11-27T08:04:05.637Z,79.11
2022-11-27T08:09:06.944Z,79.38
2022-11-27T08:14:16.159Z,79.31
2022-11-27T08:19:17.491Z,79.05
2022-11-27T08:24:18.820Z,78.50
2022-11-27T08:29:20.259Z,79.63
2022-11-27T08:34:21.646Z,79.23
2022-11-27T08:39:23.292Z,76.34
2022-11-27T08:44:24.928Z,74.96
2022-11-27T08:49:26.383Z,74.80
2022-11-27T08:54:27.768Z,73.79
2022-11-27T08:59:29.393Z,74.62
2022-11-27T09:04:30.768Z,73.69
2022-11-27T09:09:32.200Z,72.54
2022-11-27T09:14:33.540Z,71.79
2022-11-27T09:19:35.073Z,71.32
2022-11-27T09:24:36.777Z,69.84
2022-11-27T09:29:38.289Z,69.20
2022-11-27T09:34:39.945Z,69.41
2022-11-27T09:39:41.717Z,68.24
2022-11-27T09:44:52.287Z,66.61
2022-11-27T09:49:59.815Z,65.84
2022-11-27T09:55:09.843Z,65.29
2022-11-27T10:00:17.867Z,63.95
2022-11-27T10:05:23.100Z,63.77
2022-11-27T10:10:51.013Z,63.87
2022-11-27T10:16:10.357Z,63.24
2022-11-27T10:21:30.593Z,62.71
2022-11-27T10:27:02.394Z,58.51
2022-11-27T10:32:46.988Z,47.29
2022-11-27T10:37:42.944Z,48.41
2022-11-27T10:43:07.553Z,51.54
2022-11-27T10:48:08.888Z,52.79
2022-11-27T10:53:21.793Z,54.75
2022-11-27T10:58:35.240Z,56.10
2022-11-27T11:03:37.629Z,57.81
2022-11-27T11:08:39.109Z,58.56
2022-11-27T11:13:40.437Z,58.84
2022-11-27T11:18:50.541Z,59.29
2022-11-27T11:24:20.907Z,60.75
2022-11-27T11:29:28.279Z,61.51
2022-11-27T11:34:31.205Z,61.50
2022-11-27T11:39:44.727Z,61.24
2022-11-27T11:44:51.864Z,61.27
2022-11-27T11:49:55.010Z,59.77
2022-11-27T11:55:31.597Z,59.28
2022-11-27T12:01:18.903Z,59.28
2022-11-27T12:06:31.263Z,58.62
2022-11-27T12:11:43.593Z,59.43
2022-11-27T12:16:56.241Z,58.80
2022-11-27T12:21:57.780Z,58.62
2022-11-27T12:27:08.291Z,55.34
2022-11-27T12:32:34.476Z,50.17
2022-11-27T12:37:57.352Z,48.74
2022-11-27T12:43:04.696Z,50.15
2022-11-27T12:48:14.658Z,51.98
2022-11-27T12:53:39.593Z,52.92
2022-11-27T12:58:45.395Z,51.61
2022-11-27T13:04:05.025Z,40.21
2022-11-27T13:09:16.143Z,30.98
2022-11-27T13:14:24.003Z,31.98
2022-11-27T13:19:32.806Z,31.24
2022-11-27T13:24:35.575Z,32.40
2022-11-27T13:29:47.097Z,35.61
2022-11-27T13:34:50.208Z,40.08
2022-11-27T13:40:00.056Z,44.03
2022-11-27T13:45:12.312Z,47.62
2022-11-27T13:50:18.134Z,48.85
2022-11-27T13:55:26.204Z,50.53
2022-11-27T14:00:42.634Z,51.60
2022-11-27T14:05:45.452Z,52.48
2022-11-27T14:11:03.476Z,53.37
2022-11-27T14:16:23.002Z,54.84
2022-11-27T14:21:45.187Z,55.87
2022-11-27T14:26:46.549Z,56.65
2022-11-27T14:31:57.452Z,59.53
2022-11-27T14:37:00.256Z,58.19
2022-11-27T14:42:23.054Z,57.84
2022-11-27T14:47:26.660Z,58.48
2022-11-27T14:52:28.670Z,59.75
2022-11-27T14:57:30.858Z,60.03
2022-11-27T15:02:32.696Z,61.33
2022-11-27T15:07:45.247Z,61.34
2022-11-27T15:12:49.649Z,61.48
2022-11-27T15:17:57.657Z,63.37
2022-11-27T15:23:00.192Z,62.73
2022-11-27T15:28:02.936Z,62.00
2022-11-27T15:33:04.301Z,63.13
2022-11-27T15:38:10.822Z,61.97
2022-11-27T15:43:16.375Z,62.81
2022-11-27T15:48:19.494Z,62.84
2022-11-27T15:53:21.006Z,63.33
2022-11-27T15:58:22.407Z,63.56
2022-11-27T16:03:23.806Z,63.47
2022-11-27T16:08:25.217Z,63.40
2022-11-27T16:13:26.585Z,63.64
2022-11-27T16:18:28.309Z,63.78
2022-11-27T16:23:29.736Z,64.55
2022-11-27T16:28:32.329Z,64.83
2022-11-27T16:33:33.760Z,65.38
2022-11-27T16:38:35.681Z,65.95
2022-11-27T16:43:39.775Z,66.38
2022-11-27T16:48:42.474Z,67.25
2022-11-27T16:53:46.192Z,67.50
2022-11-27T16:58:48.178Z,67.51
2022-11-27T17:03:50.483Z,67.63
2022-11-27T17:08:53.943Z,68.30
2022-11-27T17:14:01.145Z,68.32
2022-11-27T17:19:02.542Z,68.51
2022-11-27T17:24:14.680Z,68.57
2022-11-27T17:29:20.768Z,68.68
2022-11-27T17:34:22.404Z,68.58
2022-11-27T17:39:23.787Z,68.73
2022-11-27T17:44:25.160Z,68.49
2022-11-27T17:49:26.844Z,68.14
2022-11-27T17:54:28.180Z,68.45
2022-11-27T17:59:29.758Z,68.61
2022-11-27T18:04:32.251Z,68.41
2022-11-27T18:09:33.780Z,68.18
2022-11-27T18:14:35.131Z,68.09
2022-11-27T18:19:36.604Z,68.11
2022-11-27T18:24:41.668Z,68.32
2022-11-27T18:29:44.892Z,68.72
2022-11-27T18:34:46.803Z,68.54
2022-11-27T18:39:48.358Z,67.97
2022-11-27T18:44:49.828Z,68.21
2022-11-27T18:49:51.272Z,68.22
2022-11-27T18:54:52.604Z,67.93
2022-11-27T18:59:54.558Z,68.21
2022-11-27T19:04:55.858Z,67.86
2022-11-27T19:09:57.428Z,67.65
2022-11-27T19:14:58.999Z,68.03
2022-11-27T19:20:00.509Z,67.36
2022-11-27T19:25:02.184Z,67.61
2022-11-27T19:30:03.842Z,67.37
2022-11-27T19:35:07.376Z,67.40
2022-11-27T19:40:09.487Z,67.31
2022-11-27T19:45:11.061Z,67.31
2022-11-27T19:50:14.033Z,67.53
2022-11-27T19:55:15.348Z,67.39
2022-11-27T20:00:17.130Z,67.49
2022-11-27T20:05:18.719Z,67.68
2022-11-27T20:10:20.155Z,68.18
2022-11-27T20:15:21.676Z,68.24
2022-11-27T20:20:23.158Z,67.69
2022-11-27T20:25:25.851Z,68.02
2022-11-27T20:30:27.354Z,67.81
2022-11-27T20:35:28.797Z,67.45
2022-11-27T20:40:30.198Z,67.71
2022-11-27T20:45:31.738Z,67.77
2022-11-27T20:50:34.487Z,67.63
2022-11-27T20:55:35.883Z,67.84
2022-11-27T21:00:37.473Z,66.80
2022-11-27T21:05:43.076Z,66.85
2022-11-27T21:10:44.466Z,66.46
2022-11-27T21:15:47.359Z,65.58
2022-11-27T21:20:48.866Z,66.29
2022-11-27T21:25:50.353Z,65.60
2022-11-27T21:30:51.705Z,66.34
2022-11-27T21:35:56.110Z,66.10
2022-11-27T21:40:57.483Z,66.58
2022-11-27T21:46:05.209Z,66.24
2022-11-27T21:51:12.558Z,65.84
2022-11-27T21:56:18.032Z,66.01
2022-11-27T22:01:23.274Z,65.70
2022-11-27T22:06:28.890Z,65.66
2022-11-27T22:11:30.674Z,66.03
2022-11-27T22:16:35.985Z,66.24
2022-11-27T22:21:40.084Z,65.66
2022-11-27T22:26:41.433Z,66.11
2022-11-27T22:31:42.962Z,65.93
2022-11-27T22:36:44.777Z,65.79
2022-11-27T22:41:46.135Z,66.11
2022-11-27T22:46:47.667Z,66.21
2022-11-27T22:51:49.166Z,66.37
2022-11-27T22:56:50.723Z,66.22
2022-11-27T23:01:52.029Z,65.90
2022-11-27T23:06:53.615Z,65.47
2022-11-27T23:11:56.461Z,64.94
2022-11-27T23:16:58.423Z,65.09
2022-11-27T23:21:59.878Z,65.98
2022-11-27T23:27:01.242Z,66.28
2022-11-27T23:32:02.656Z,66.04
2022-11-27T23:37:04.014Z,65.41
2022-11-27T23:42:05.359Z,65.51
2022-11-27T23:47:06.698Z,65.60
2022-11-27T23:52:11.906Z,65.30
2022-11-27T23:57:17.452Z,65.30
